createdAt,value
2019-05-18T00:00:42.819Z,39.30
2019-05-18T00:01:42.781Z,39.60
2019-05-18T00:02:42.768Z,40.20
2019-05-18T00:03:42.752Z,40.40
2019-05-18T00:04:42.735Z,40.40
2019-05-18T00:05:42.725Z,40.50
2019-05-18T00:06:42.733Z,41.30
2019-05-18T00:07:42.713Z,41.10
2019-05-18T00:08:42.695Z,40.40
2019-05-18T00:09:42.686Z,41.10
2019-05-18T00:10:42.698Z,40.90
2019-05-18T00:11:42.669Z,41.10
2019-05-18T00:12:42.649Z,41.70
2019-05-18T00:13:42.642Z,40.60
2019-05-18T00:14:42.628Z,42.30
2019-05-18T00:15:42.618Z,40.80
2019-05-18T00:16:42.640Z,42.10
2019-05-18T00:17:42.599Z,43.60
2019-05-18T00:18:42.603Z,43.30
2019-05-18T00:19:42.576Z,43.10
2019-05-18T00:20:42.572Z,43.00
2019-05-18T00:21:42.544Z,43.60
2019-05-18T00:22:42.570Z,43.90
2019-05-18T00:23:42.525Z,43.20
2019-05-18T00:24:42.528Z,43.50
2019-05-18T00:25:42.506Z,44.40
2019-05-18T00:26:42.499Z,43.80
2019-05-18T00:27:42.486Z,42.70
2019-05-18T00:28:42.483Z,43.60
2019-05-18T00:29:42.470Z,42.40
2019-05-18T00:30:42.445Z,44.10
2019-05-18T00:31:42.436Z,44.90
2019-05-18T00:32:42.431Z,43.90
2019-05-18T00:33:42.457Z,43.70
2019-05-18T00:34:42.408Z,44.00
2019-05-18T00:35:42.396Z,43.30
2019-05-18T00:36:42.381Z,44.60
2019-05-18T00:37:42.364Z,44.20
2019-05-18T00:38:42.355Z,44.30
2019-05-18T00:39:42.353Z,43.50
2019-05-18T00:40:42.336Z,44.70
2019-05-18T00:41:45.379Z,46.20
2019-05-18T00:42:42.315Z,45.40
2019-05-18T00:43:42.296Z,45.50
2019-05-18T00:44:42.296Z,46.10
2019-05-18T00:45:42.273Z,47.30
2019-05-18T00:46:42.282Z,45.70
2019-05-18T00:47:42.519Z,45.70
2019-05-18T00:48:42.246Z,46.30
2019-05-18T00:49:42.255Z,48.40
2019-05-18T00:50:42.236Z,48.40
2019-05-18T00:51:42.211Z,48.50
2019-05-18T00:52:42.196Z,47.70
2019-05-18T00:53:42.182Z,48.50
2019-05-18T00:54:42.178Z,47.00
2019-05-18T00:55:42.170Z,47.20
2019-05-18T00:56:42.187Z,48.80
2019-05-18T00:57:42.144Z,48.50
2019-05-18T00:58:42.126Z,48.00
2019-05-18T00:59:42.125Z,48.60
2019-05-18T01:00:42.141Z,48.10
2019-05-18T01:01:42.093Z,48.00
2019-05-18T01:02:42.086Z,47.90
2019-05-18T01:03:42.070Z,49.20
2019-05-18T01:04:42.060Z,48.50
2019-05-18T01:05:42.048Z,47.50
2019-05-18T01:06:42.039Z,46.70
2019-05-18T01:07:42.024Z,48.90
2019-05-18T01:08:42.024Z,49.90
2019-05-18T01:09:42.010Z,49.60
2019-05-18T01:10:42.015Z,50.80
2019-05-18T01:11:42.004Z,49.60
2019-05-18T01:12:41.972Z,50.10
2019-05-18T01:13:41.961Z,50.20
2019-05-18T01:14:41.954Z,51.00
2019-05-18T01:15:41.933Z,51.00
2019-05-18T01:16:41.937Z,48.70
2019-05-18T01:17:55.094Z,51.40
2019-05-18T01:18:42.912Z,51.10
2019-05-18T01:19:41.899Z,53.20
2019-05-18T01:20:41.891Z,51.10
2019-05-18T01:21:41.870Z,51.60
2019-05-18T01:22:41.854Z,51.70
2019-05-18T01:23:41.846Z,51.30
2019-05-18T01:24:41.841Z,52.20
2019-05-18T01:25:41.829Z,53.70
2019-05-18T01:26:41.820Z,52.20
2019-05-18T01:27:41.798Z,53.30
2019-05-18T01:28:41.797Z,53.80
2019-05-18T01:29:41.781Z,52.80
2019-05-18T01:30:41.765Z,53.40
2019-05-18T01:31:41.778Z,52.60
2019-05-18T01:32:41.750Z,53.10
2019-05-18T01:33:41.742Z,52.50
2019-05-18T01:34:41.736Z,55.30
2019-05-18T01:35:41.717Z,54.50
2019-05-18T01:36:41.701Z,56.10
2019-05-18T01:37:41.703Z,54.10
2019-05-18T01:38:41.690Z,56.50
2019-05-18T01:39:41.676Z,55.80
2019-05-18T01:40:41.655Z,55.80
2019-05-18T01:41:41.661Z,55.10
2019-05-18T01:42:41.635Z,55.10
2019-05-18T01:43:41.636Z,54.50
2019-05-18T01:44:41.621Z,55.70
2019-05-18T01:45:41.600Z,54.90
2019-05-18T01:46:41.589Z,55.70
2019-05-18T01:47:41.593Z,55.40
2019-05-18T01:48:41.595Z,56.40
2019-05-18T01:49:41.597Z,55.90
2019-05-18T01:50:41.549Z,56.70
2019-05-18T01:51:41.532Z,55.50
2019-05-18T01:52:41.528Z,56.40
2019-05-18T01:53:41.513Z,56.00
2019-05-18T01:54:41.538Z,58.30
2019-05-18T01:55:41.500Z,57.60
2019-05-18T01:56:41.493Z,55.50
2019-05-18T01:57:41.488Z,56.90
2019-05-18T01:58:41.463Z,57.20
2019-05-18T01:59:41.451Z,57.30
2019-05-18T02:00:41.444Z,55.70
2019-05-18T02:01:41.429Z,57.40
2019-05-18T02:02:41.416Z,58.10
2019-05-18T02:03:41.407Z,57.10
2019-05-18T02:04:41.399Z,54.80
2019-05-18T02:05:41.390Z,58.20
2019-05-18T02:06:41.402Z,57.80
2019-05-18T02:07:41.385Z,60.60
2019-05-18T02:08:41.350Z,58.80
2019-05-18T02:09:41.344Z,59.10
2019-05-18T02:10:41.331Z,59.20
2019-05-18T02:11:41.320Z,58.20
2019-05-18T02:12:41.325Z,59.90
2019-05-18T02:13:41.305Z,59.50
2019-05-18T02:14:41.284Z,60.00
2019-05-18T02:15:41.276Z,58.70
2019-05-18T02:16:41.269Z,59.60
2019-05-18T02:17:41.302Z,58.60
2019-05-18T02:18:41.241Z,61.70
2019-05-18T02:19:41.238Z,60.80
2019-05-18T02:20:41.224Z,60.30
2019-05-18T02:21:41.213Z,60.30
2019-05-18T02:22:41.208Z,60.80
2019-05-18T02:23:41.202Z,59.40
2019-05-18T02:24:41.178Z,59.20
2019-05-18T02:25:41.166Z,59.00
2019-05-18T02:26:41.160Z,62.50
2019-05-18T02:27:41.143Z,62.20
2019-05-18T02:28:41.147Z,62.80
2019-05-18T02:29:41.137Z,63.30
2019-05-18T02:30:41.141Z,63.00
2019-05-18T02:31:41.101Z,61.00
2019-05-18T02:32:41.090Z,59.90
2019-05-18T02:33:41.094Z,62.60
2019-05-18T02:34:41.072Z,63.40
2019-05-18T02:35:41.067Z,59.00
2019-05-18T02:36:41.058Z,61.70
2019-05-18T02:37:41.039Z,64.60
2019-05-18T02:38:41.032Z,63.80
2019-05-18T02:39:41.056Z,63.80
2019-05-18T02:40:41.009Z,64.20
2019-05-18T02:41:40.998Z,64.80
2019-05-18T02:42:40.987Z,65.70
2019-05-18T02:43:40.995Z,65.30
2019-05-18T02:44:40.996Z,65.20
2019-05-18T02:45:40.962Z,64.90
2019-05-18T02:46:40.945Z,63.40
2019-05-18T02:47:40.942Z,64.50
2019-05-18T02:48:49.308Z,64.50
2019-05-18T02:49:41.914Z,64.00
2019-05-18T02:50:40.920Z,65.60
2019-05-18T02:51:40.918Z,66.60
2019-05-18T02:52:40.881Z,64.30
2019-05-18T02:53:40.893Z,64.90
2019-05-18T02:54:40.860Z,63.10
2019-05-18T02:55:40.858Z,65.40
2019-05-18T02:56:40.837Z,64.50
2019-05-18T02:57:40.843Z,66.00
2019-05-18T02:58:40.825Z,66.70
2019-05-18T02:59:40.818Z,65.60
2019-05-18T03:00:40.821Z,65.40
2019-05-18T03:01:40.796Z,66.40
2019-05-18T03:02:40.769Z,66.10
2019-05-18T03:03:40.759Z,68.50
2019-05-18T03:04:40.754Z,68.90
2019-05-18T03:05:40.752Z,68.20
2019-05-18T03:06:40.748Z,69.50
2019-05-18T03:07:40.725Z,69.50
2019-05-18T03:08:40.705Z,72.00
2019-05-18T03:09:40.697Z,70.70
2019-05-18T03:10:40.687Z,71.40
2019-05-18T03:11:40.709Z,71.90
2019-05-18T03:12:40.667Z,71.70
2019-05-18T03:13:40.657Z,69.00
2019-05-18T03:14:40.646Z,71.00
2019-05-18T03:15:40.635Z,70.60
2019-05-18T03:16:40.622Z,70.80
2019-05-18T03:17:40.641Z,72.50
2019-05-18T03:18:40.597Z,71.70
2019-05-18T03:19:40.590Z,71.80
2019-05-18T03:20:40.581Z,73.50
2019-05-18T03:21:40.573Z,73.10
2019-05-18T03:22:40.560Z,74.70
2019-05-18T03:23:40.557Z,70.90
2019-05-18T03:24:40.537Z,71.90
2019-05-18T03:25:40.529Z,72.50
2019-05-18T03:26:40.514Z,72.70
2019-05-18T03:27:40.521Z,72.80
2019-05-18T03:28:40.509Z,73.60
2019-05-18T03:29:40.485Z,71.30
2019-05-18T03:30:40.475Z,73.30
2019-05-18T03:31:40.468Z,72.60
2019-05-18T03:32:40.459Z,73.70
2019-05-18T03:33:40.447Z,74.70
2019-05-18T03:34:40.436Z,72.00
2019-05-18T03:35:40.448Z,71.00
2019-05-18T03:36:40.412Z,72.60
2019-05-18T03:37:40.415Z,75.60
2019-05-18T03:38:40.398Z,74.60
2019-05-18T03:39:40.371Z,73.30
2019-05-18T03:40:40.368Z,74.50
2019-05-18T03:41:40.358Z,71.90
2019-05-18T03:42:40.338Z,73.60
2019-05-18T03:43:40.342Z,73.70
2019-05-18T03:44:40.318Z,75.30
2019-05-18T03:45:40.330Z,73.30
2019-05-18T03:46:40.321Z,74.60
2019-05-18T03:47:40.284Z,74.60
2019-05-18T03:48:40.276Z,74.70
2019-05-18T03:49:40.268Z,74.90
2019-05-18T03:50:40.255Z,74.90
2019-05-18T03:51:40.276Z,75.70
2019-05-18T03:52:40.264Z,77.50
2019-05-18T03:53:40.225Z,74.80
2019-05-18T03:54:40.227Z,77.50
2019-05-18T03:55:40.199Z,78.70
2019-05-18T03:56:40.192Z,75.30
2019-05-18T03:57:40.188Z,74.50
2019-05-18T03:58:40.163Z,76.90
2019-05-18T03:59:40.153Z,74.60
2019-05-18T04:00:40.140Z,75.30
2019-05-18T04:01:40.142Z,74.50
2019-05-18T04:02:40.204Z,76.00
2019-05-18T04:03:40.113Z,75.70
2019-05-18T04:04:40.097Z,74.40
2019-05-18T04:05:40.097Z,73.30
2019-05-18T04:06:40.074Z,72.80
2019-05-18T04:07:40.078Z,73.50
2019-05-18T04:08:40.058Z,75.10
2019-05-18T04:09:40.047Z,72.40
2019-05-18T04:10:40.051Z,72.70
2019-05-18T04:11:40.023Z,74.00
2019-05-18T04:12:40.014Z,74.10
2019-05-18T04:13:40.003Z,73.80
2019-05-18T04:14:39.999Z,71.70
2019-05-18T04:15:39.980Z,73.10
2019-05-18T04:16:39.981Z,72.80
2019-05-18T04:17:39.957Z,72.90
2019-05-18T04:18:39.962Z,72.60
2019-05-18T04:19:46.223Z,72.20
2019-05-18T04:20:40.915Z,73.20
2019-05-18T04:21:39.950Z,73.10
2019-05-18T04:22:39.906Z,72.90
2019-05-18T04:23:39.892Z,73.00
2019-05-18T04:24:39.880Z,72.10
2019-05-18T04:25:43.567Z,71.00
2019-05-18T04:26:39.848Z,73.30
2019-05-18T04:27:39.850Z,71.20
2019-05-18T04:28:39.831Z,71.00
2019-05-18T04:29:39.822Z,72.70
2019-05-18T04:30:39.819Z,71.60
2019-05-18T04:31:39.829Z,72.20
2019-05-18T04:32:39.817Z,73.00
2019-05-18T04:33:39.769Z,72.20
2019-05-18T04:34:39.770Z,71.50
2019-05-18T04:35:39.772Z,70.20
2019-05-18T04:36:39.788Z,74.40
2019-05-18T04:37:39.730Z,71.60
2019-05-18T04:38:39.719Z,71.70
2019-05-18T04:39:39.710Z,73.70
2019-05-18T04:40:39.693Z,73.40
2019-05-18T04:41:39.699Z,72.40
2019-05-18T04:42:39.682Z,72.80
2019-05-18T04:43:39.674Z,71.10
2019-05-18T04:44:39.657Z,71.50
2019-05-18T04:45:39.641Z,69.70
2019-05-18T04:46:39.651Z,70.80
2019-05-18T04:47:39.616Z,72.30
2019-05-18T04:48:39.599Z,68.90
2019-05-18T04:49:39.592Z,70.20
2019-05-18T04:50:39.592Z,71.30
2019-05-18T04:51:39.571Z,71.30
2019-05-18T04:52:39.566Z,70.80
2019-05-18T04:53:39.544Z,69.30
2019-05-18T04:54:39.561Z,70.50
2019-05-18T04:55:39.526Z,73.10
2019-05-18T04:56:42.848Z,70.90
2019-05-18T04:57:39.519Z,72.30
2019-05-18T04:58:39.492Z,71.40
2019-05-18T04:59:39.477Z,71.20
2019-05-18T05:00:39.471Z,71.00
2019-05-18T05:01:39.464Z,70.40
2019-05-18T05:02:39.469Z,70.20
2019-05-18T05:03:39.438Z,67.60
2019-05-18T05:04:39.444Z,70.70
2019-05-18T05:05:39.418Z,68.40
2019-05-18T05:06:39.398Z,70.60
2019-05-18T05:07:39.394Z,67.90
2019-05-18T05:08:39.389Z,65.30
2019-05-18T05:09:39.379Z,65.40
2019-05-18T05:10:39.353Z,64.70
2019-05-18T05:11:39.347Z,64.00
2019-05-18T05:12:39.335Z,64.90
2019-05-18T05:13:39.351Z,63.20
2019-05-18T05:14:39.311Z,63.80
2019-05-18T05:15:39.297Z,62.20
2019-05-18T05:16:39.291Z,63.00
2019-05-18T05:17:39.296Z,63.20
2019-05-18T05:18:39.271Z,62.00
2019-05-18T05:19:39.255Z,62.30
2019-05-18T05:20:39.249Z,61.30
2019-05-18T05:21:39.243Z,60.60
2019-05-18T05:22:39.234Z,61.00
2019-05-18T05:23:39.223Z,59.20
2019-05-18T05:24:39.199Z,58.90
2019-05-18T05:25:39.186Z,58.00
2019-05-18T05:26:39.852Z,57.70
2019-05-18T05:27:39.168Z,57.50
2019-05-18T05:28:39.171Z,55.40
2019-05-18T05:29:39.149Z,52.70
2019-05-18T05:30:39.150Z,52.40
2019-05-18T05:31:39.121Z,50.80
2019-05-18T05:32:39.110Z,51.60
2019-05-18T05:33:39.117Z,49.80
2019-05-18T05:34:39.102Z,50.80
2019-05-18T05:35:39.084Z,49.60
2019-05-18T05:36:39.074Z,50.20
2019-05-18T05:37:39.058Z,49.40
2019-05-18T05:38:39.052Z,50.30
2019-05-18T05:39:39.048Z,47.80
2019-05-18T05:40:39.062Z,46.80
2019-05-18T05:41:39.018Z,47.20
2019-05-18T05:42:39.007Z,48.00
2019-05-18T05:43:38.990Z,48.90
2019-05-18T05:44:38.979Z,46.20
2019-05-18T05:45:38.983Z,46.60
2019-05-18T05:46:38.968Z,47.30
2019-05-18T05:47:38.952Z,45.30
2019-05-18T05:48:38.936Z,46.70
2019-05-18T05:49:38.923Z,44.20
2019-05-18T05:50:38.918Z,43.60
2019-05-18T05:51:38.914Z,43.20
2019-05-18T05:52:38.925Z,43.30
2019-05-18T05:53:38.894Z,40.90
2019-05-18T05:54:38.874Z,41.40
2019-05-18T05:55:38.857Z,42.60
2019-05-18T05:56:38.858Z,40.80
2019-05-18T05:57:38.838Z,41.10
2019-05-18T05:58:38.836Z,40.40
2019-05-18T05:59:38.815Z,40.70
2019-05-18T06:00:38.807Z,39.10
2019-05-18T06:01:38.831Z,39.40
2019-05-18T06:02:38.789Z,36.50
2019-05-18T06:03:38.768Z,37.40
2019-05-18T06:04:38.764Z,36.50
2019-05-18T06:05:38.752Z,36.80
2019-05-18T06:06:38.755Z,37.10
2019-05-18T06:07:38.740Z,37.50
2019-05-18T06:08:38.715Z,36.10
2019-05-18T06:09:38.715Z,35.70
2019-05-18T06:10:38.697Z,35.90
2019-05-18T06:11:38.716Z,35.30
2019-05-18T06:12:38.673Z,36.00
2019-05-18T06:13:38.660Z,32.80
2019-05-18T06:14:38.657Z,33.10
2019-05-18T06:15:38.651Z,34.10
2019-05-18T06:16:38.656Z,35.00
2019-05-18T06:17:38.633Z,35.30
2019-05-18T06:18:38.621Z,33.90
2019-05-18T06:19:38.596Z,33.70
2019-05-18T06:20:50.408Z,34.00
2019-05-18T06:21:39.574Z,33.70
2019-05-18T06:22:38.572Z,32.50
2019-05-18T06:23:38.657Z,32.70
2019-05-18T06:24:38.542Z,31.60
2019-05-18T06:25:38.539Z,31.50
2019-05-18T06:26:38.521Z,32.10
2019-05-18T06:27:38.516Z,30.70
2019-05-18T06:28:38.511Z,30.30
2019-05-18T06:29:38.489Z,29.80
2019-05-18T06:30:38.484Z,28.30
2019-05-18T06:31:38.469Z,27.90
2019-05-18T06:32:38.457Z,29.10
2019-05-18T06:33:38.492Z,29.10
2019-05-18T06:34:38.443Z,29.10
2019-05-18T06:35:38.430Z,28.80
2019-05-18T06:36:38.420Z,28.30
2019-05-18T06:37:38.408Z,28.40
2019-05-18T06:38:38.415Z,28.00
2019-05-18T06:39:38.386Z,27.40
2019-05-18T06:40:38.454Z,26.80
2019-05-18T06:41:38.364Z,28.10
2019-05-18T06:42:38.356Z,28.80
2019-05-18T06:43:38.350Z,27.80
2019-05-18T06:44:38.343Z,27.90
2019-05-18T06:45:38.353Z,26.80
2019-05-18T06:46:38.307Z,26.30
2019-05-18T06:47:38.292Z,27.30
2019-05-18T06:48:38.285Z,26.60
2019-05-18T06:49:38.328Z,25.70
2019-05-18T06:50:38.269Z,25.30
2019-05-18T06:51:38.255Z,26.50
2019-05-18T06:52:38.249Z,25.40
2019-05-18T06:53:38.229Z,26.30
2019-05-18T06:54:38.228Z,25.80
2019-05-18T06:55:38.228Z,26.50
2019-05-18T06:56:38.189Z,25.20
2019-05-18T06:57:38.182Z,25.40
2019-05-18T06:58:38.170Z,25.40
2019-05-18T06:59:38.163Z,26.20
2019-05-18T07:00:38.160Z,25.60
2019-05-18T07:01:38.137Z,25.20
2019-05-18T07:02:38.125Z,25.20
2019-05-18T07:03:38.153Z,25.10
2019-05-18T07:04:38.161Z,24.40
2019-05-18T07:05:38.126Z,25.00
2019-05-18T07:06:38.083Z,24.70
2019-05-18T07:07:38.067Z,25.40
2019-05-18T07:08:38.058Z,24.40
2019-05-18T07:09:38.049Z,24.40
2019-05-18T07:10:38.046Z,23.80
2019-05-18T07:11:38.022Z,24.70
2019-05-18T07:12:38.022Z,24.10
2019-05-18T07:13:38.164Z,23.80
2019-05-18T07:14:37.986Z,25.20
2019-05-18T07:15:37.991Z,24.90
2019-05-18T07:16:37.978Z,23.20
2019-05-18T07:17:37.954Z,24.30
2019-05-18T07:18:37.947Z,25.00
2019-05-18T07:19:37.939Z,24.30
2019-05-18T07:20:37.927Z,24.80
2019-05-18T07:21:37.925Z,24.10
2019-05-18T07:22:37.906Z,24.10
2019-05-18T07:23:37.888Z,25.50
2019-05-18T07:24:37.883Z,24.10
2019-05-18T07:25:37.867Z,24.20
2019-05-18T07:26:37.870Z,24.60
2019-05-18T07:27:37.843Z,24.40
2019-05-18T07:28:37.856Z,24.70
2019-05-18T07:29:37.823Z,24.90
2019-05-18T07:30:37.816Z,24.90
2019-05-18T07:31:37.811Z,25.00
2019-05-18T07:32:37.794Z,25.00
2019-05-18T07:33:37.778Z,24.30
2019-05-18T07:34:37.775Z,23.80
2019-05-18T07:35:37.756Z,23.40
2019-05-18T07:36:37.751Z,22.50
2019-05-18T07:37:37.737Z,22.80
2019-05-18T07:38:37.727Z,22.90
2019-05-18T07:39:37.726Z,23.50
2019-05-18T07:40:37.708Z,24.20
2019-05-18T07:41:46.256Z,24.00
2019-05-18T07:42:38.676Z,23.40
2019-05-18T07:43:37.683Z,23.80
2019-05-18T07:44:37.657Z,23.30
2019-05-18T07:45:37.654Z,23.70
2019-05-18T07:46:37.646Z,23.90
2019-05-18T07:47:37.632Z,23.30
2019-05-18T07:48:37.653Z,24.20
2019-05-18T07:49:37.611Z,24.30
2019-05-18T07:50:37.591Z,23.90
2019-05-18T07:51:37.599Z,23.70
2019-05-18T07:52:37.577Z,23.40
2019-05-18T07:53:37.571Z,24.20
2019-05-18T07:54:37.556Z,24.00
2019-05-18T07:55:37.544Z,23.20
2019-05-18T07:56:37.564Z,23.20
2019-05-18T07:57:37.521Z,23.70
2019-05-18T07:58:37.502Z,24.60
2019-05-18T07:59:37.504Z,24.40
2019-05-18T08:00:37.489Z,23.30
2019-05-18T08:01:37.476Z,23.40
2019-05-18T08:02:37.477Z,24.00
2019-05-18T08:03:37.455Z,23.70
2019-05-18T08:04:39.772Z,23.70
2019-05-18T08:05:37.437Z,23.90
2019-05-18T08:06:37.420Z,23.30
2019-05-18T08:07:37.445Z,23.00
2019-05-18T08:08:37.394Z,31.50
2019-05-18T08:09:37.384Z,23.20
2019-05-18T08:10:37.419Z,24.00
2019-05-18T08:11:37.386Z,22.90
2019-05-18T08:12:37.431Z,23.20
2019-05-18T08:13:37.359Z,23.90
2019-05-18T08:14:37.334Z,22.90
2019-05-18T08:15:37.328Z,22.80
2019-05-18T08:16:37.312Z,22.50
2019-05-18T08:17:37.329Z,22.80
2019-05-18T08:18:37.294Z,22.40
2019-05-18T08:19:37.291Z,22.90
2019-05-18T08:20:37.267Z,22.80
2019-05-18T08:21:50.813Z,23.00
2019-05-18T08:22:38.292Z,23.10
2019-05-18T08:23:37.231Z,21.90
2019-05-18T08:24:37.232Z,22.30
2019-05-18T08:25:37.217Z,21.90
2019-05-18T08:26:37.206Z,21.80
2019-05-18T08:27:37.188Z,23.10
2019-05-18T08:28:37.205Z,21.80
2019-05-18T08:29:37.168Z,21.60
2019-05-18T08:30:37.158Z,21.70
2019-05-18T08:31:37.149Z,21.80
2019-05-18T08:32:37.146Z,22.20
2019-05-18T08:33:37.127Z,22.50
2019-05-18T08:34:37.113Z,22.70
2019-05-18T08:35:37.104Z,38.60
2019-05-18T08:36:37.090Z,24.10
2019-05-18T08:37:37.101Z,23.90
2019-05-18T08:38:37.082Z,22.10
2019-05-18T08:39:37.061Z,22.40
2019-05-18T08:40:37.064Z,22.20
2019-05-18T08:41:37.036Z,22.30
2019-05-18T08:42:37.027Z,21.90
2019-05-18T08:43:37.033Z,21.70
2019-05-18T08:44:37.011Z,22.10
2019-05-18T08:45:36.997Z,22.30
2019-05-18T08:46:36.986Z,22.10
2019-05-18T08:47:36.980Z,22.30
2019-05-18T08:48:36.968Z,22.70
2019-05-18T08:49:36.975Z,22.80
2019-05-18T08:50:36.985Z,22.60
2019-05-18T08:51:36.928Z,23.40
2019-05-18T08:52:36.919Z,22.50
2019-05-18T08:53:36.912Z,22.60
2019-05-18T08:54:36.957Z,22.80
2019-05-18T08:55:36.889Z,22.90
2019-05-18T08:56:36.888Z,23.50
2019-05-18T08:57:36.872Z,23.80
2019-05-18T08:58:36.861Z,23.00
2019-05-18T08:59:39.809Z,23.10
2019-05-18T09:00:36.918Z,23.80
2019-05-18T09:01:36.821Z,23.30
2019-05-18T09:02:36.810Z,23.20
2019-05-18T09:03:36.800Z,23.60
2019-05-18T09:04:36.796Z,23.10
2019-05-18T09:05:36.793Z,23.00
2019-05-18T09:06:36.778Z,22.90
2019-05-18T09:07:36.771Z,23.00
2019-05-18T09:08:36.746Z,23.40
2019-05-18T09:09:36.738Z,23.80
2019-05-18T09:10:36.741Z,24.60
2019-05-18T09:11:36.720Z,23.50
2019-05-18T09:12:36.723Z,24.10
2019-05-18T09:13:36.694Z,23.40
2019-05-18T09:14:36.683Z,24.40
2019-05-18T09:15:36.703Z,23.20
2019-05-18T09:16:36.665Z,24.10
2019-05-18T09:17:36.665Z,23.60
2019-05-18T09:18:36.649Z,23.90
2019-05-18T09:19:36.667Z,23.50
2019-05-18T09:20:36.637Z,24.30
2019-05-18T09:21:36.627Z,23.90
2019-05-18T09:22:36.612Z,23.20
2019-05-18T09:23:36.599Z,23.60
2019-05-18T09:24:36.585Z,24.10
2019-05-18T09:25:36.571Z,24.10
2019-05-18T09:26:36.576Z,23.30
2019-05-18T09:27:36.559Z,23.40
2019-05-18T09:28:36.542Z,23.70
2019-05-18T09:29:36.534Z,23.70
2019-05-18T09:30:36.524Z,23.50
2019-05-18T09:31:36.524Z,23.40
2019-05-18T09:32:36.502Z,23.00
2019-05-18T09:33:36.490Z,22.90
2019-05-18T09:34:36.491Z,22.70
2019-05-18T09:35:36.473Z,22.50
2019-05-18T09:36:36.489Z,22.80
2019-05-18T09:37:36.467Z,22.00
2019-05-18T09:38:36.445Z,21.80
2019-05-18T09:39:36.429Z,22.40
2019-05-18T09:40:36.422Z,22.00
2019-05-18T09:41:36.415Z,22.30
2019-05-18T09:42:36.438Z,21.60
2019-05-18T09:43:36.392Z,21.40
2019-05-18T09:44:36.379Z,21.70
2019-05-18T09:45:36.372Z,21.40
2019-05-18T09:46:36.419Z,22.70
2019-05-18T09:47:36.348Z,23.00
2019-05-18T09:48:36.349Z,22.40
2019-05-18T09:49:36.353Z,22.80
2019-05-18T09:50:36.320Z,22.80
2019-05-18T09:51:36.310Z,21.10
2019-05-18T09:52:44.920Z,21.40
2019-05-18T09:53:50.467Z,21.60
2019-05-18T09:54:37.278Z,21.30
2019-05-18T09:55:36.275Z,22.40
2019-05-18T09:56:36.252Z,22.10
2019-05-18T09:57:36.251Z,22.20
2019-05-18T09:58:36.263Z,22.10
2019-05-18T09:59:36.228Z,21.90
2019-05-18T10:00:38.988Z,21.30
2019-05-18T10:01:36.201Z,21.40
2019-05-18T10:02:36.194Z,21.10
2019-05-18T10:03:36.181Z,20.20
2019-05-18T10:04:36.211Z,20.50
2019-05-18T10:05:36.169Z,20.10
2019-05-18T10:06:36.163Z,20.50
2019-05-18T10:07:36.150Z,20.00
2019-05-18T10:08:36.135Z,20.30
2019-05-18T10:09:39.249Z,20.20
2019-05-18T10:10:36.129Z,20.10
2019-05-18T10:11:38.564Z,19.30
2019-05-18T10:12:36.112Z,19.50
2019-05-18T10:13:36.090Z,20.00
2019-05-18T10:14:36.073Z,21.30
2019-05-18T10:15:36.063Z,22.60
2019-05-18T10:16:36.067Z,19.70
2019-05-18T10:17:36.084Z,18.90
2019-05-18T10:18:36.033Z,18.70
2019-05-18T10:19:36.016Z,19.20
2019-05-18T10:20:36.022Z,20.10
2019-05-18T10:21:36.002Z,19.50
2019-05-18T10:22:36.016Z,19.40
2019-05-18T10:23:35.986Z,20.00
2019-05-18T10:24:35.971Z,19.40
2019-05-18T10:25:35.986Z,19.70
2019-05-18T10:26:35.958Z,20.50
2019-05-18T10:27:35.945Z,20.60
2019-05-18T10:28:35.943Z,21.30
2019-05-18T10:29:35.929Z,20.00
2019-05-18T10:30:35.906Z,21.00
2019-05-18T10:31:35.900Z,20.00
2019-05-18T10:32:35.885Z,20.80
2019-05-18T10:33:35.897Z,20.20
2019-05-18T10:34:35.865Z,21.30
2019-05-18T10:35:35.865Z,20.90
2019-05-18T10:36:35.851Z,20.40
2019-05-18T10:37:35.839Z,21.00
2019-05-18T10:38:35.831Z,20.70
2019-05-18T10:39:38.609Z,21.20
2019-05-18T10:40:35.799Z,21.50
2019-05-18T10:41:35.801Z,21.20
2019-05-18T10:42:35.781Z,21.60
2019-05-18T10:43:35.776Z,21.40
2019-05-18T10:44:35.768Z,21.80
2019-05-18T10:45:35.760Z,21.30
2019-05-18T10:46:35.739Z,20.80
2019-05-18T10:47:35.729Z,22.40
2019-05-18T10:48:35.729Z,21.20
2019-05-18T10:49:35.756Z,21.70
2019-05-18T10:50:35.702Z,21.30
2019-05-18T10:51:35.688Z,20.80
2019-05-18T10:52:35.685Z,22.00
2019-05-18T10:53:35.673Z,21.80
2019-05-18T10:54:35.686Z,21.50
2019-05-18T10:55:35.663Z,21.80
2019-05-18T10:56:35.638Z,21.60
2019-05-18T10:57:35.626Z,22.10
2019-05-18T10:58:35.654Z,21.80
2019-05-18T10:59:35.613Z,21.20
2019-05-18T11:00:35.608Z,21.30
2019-05-18T11:01:35.589Z,21.50
2019-05-18T11:02:35.616Z,21.90
2019-05-18T11:03:35.571Z,21.40
2019-05-18T11:04:35.574Z,21.60
2019-05-18T11:05:35.551Z,21.00
2019-05-18T11:06:35.557Z,21.50
2019-05-18T11:07:35.538Z,21.20
2019-05-18T11:08:38.264Z,21.40
2019-05-18T11:09:35.522Z,21.20
2019-05-18T11:10:35.540Z,21.90
2019-05-18T11:11:35.488Z,20.90
2019-05-18T11:12:35.475Z,20.80
2019-05-18T11:13:35.466Z,20.50
2019-05-18T11:14:35.452Z,20.60
2019-05-18T11:15:35.448Z,20.50
2019-05-18T11:16:35.464Z,21.10
2019-05-18T11:17:35.426Z,20.50
2019-05-18T11:18:35.417Z,21.10
2019-05-18T11:19:35.409Z,21.30
2019-05-18T11:20:35.423Z,21.90
2019-05-18T11:21:35.396Z,20.80
2019-05-18T11:22:35.391Z,21.70
2019-05-18T11:23:43.285Z,20.50
2019-05-18T11:24:36.356Z,20.90
2019-05-18T11:25:35.344Z,20.90
2019-05-18T11:26:35.339Z,20.60
2019-05-18T11:27:35.331Z,21.10
2019-05-18T11:28:35.326Z,20.50
2019-05-18T11:29:35.363Z,20.50
2019-05-18T11:30:35.302Z,20.70
2019-05-18T11:31:35.314Z,20.90
2019-05-18T11:32:35.291Z,20.40
2019-05-18T11:33:35.264Z,20.60
2019-05-18T11:34:35.250Z,20.60
2019-05-18T11:35:35.247Z,20.80
2019-05-18T11:36:35.233Z,21.20
2019-05-18T11:37:35.234Z,20.60
2019-05-18T11:38:35.222Z,20.70
2019-05-18T11:39:35.227Z,20.30
2019-05-18T11:40:35.187Z,20.30
2019-05-18T11:41:35.192Z,20.40
2019-05-18T11:42:35.197Z,20.20
2019-05-18T11:43:35.160Z,20.40
2019-05-18T11:44:35.159Z,20.70
2019-05-18T11:45:35.137Z,20.30
2019-05-18T11:46:35.127Z,21.10
2019-05-18T11:47:35.121Z,20.80
2019-05-18T11:48:35.127Z,20.40
2019-05-18T11:49:35.204Z,20.60
2019-05-18T11:50:35.090Z,20.70
2019-05-18T11:51:35.076Z,20.40
2019-05-18T11:52:35.071Z,21.40
2019-05-18T11:53:35.073Z,21.20
2019-05-18T11:54:35.046Z,21.20
2019-05-18T11:55:35.044Z,21.30
2019-05-18T11:56:35.043Z,20.30
2019-05-18T11:57:35.020Z,21.40
2019-05-18T11:58:35.022Z,20.90
2019-05-18T11:59:35.005Z,20.80
2019-05-18T12:00:34.994Z,20.00
2019-05-18T12:01:34.987Z,20.10
2019-05-18T12:02:34.971Z,20.70
2019-05-18T12:03:34.960Z,19.90
2019-05-18T12:04:35.019Z,19.70
2019-05-18T12:05:34.937Z,19.80
2019-05-18T12:06:34.936Z,20.40
2019-05-18T12:07:34.932Z,20.30
2019-05-18T12:08:34.993Z,19.50
2019-05-18T12:09:34.899Z,19.30
2019-05-18T12:10:34.892Z,20.00
2019-05-18T12:11:34.878Z,20.10
2019-05-18T12:12:34.858Z,19.00
2019-05-18T12:13:34.847Z,19.10
2019-05-18T12:14:34.851Z,19.30
2019-05-18T12:15:34.834Z,19.20
2019-05-18T12:16:34.822Z,19.30
2019-05-18T12:17:34.814Z,18.70
2019-05-18T12:18:34.795Z,18.10
2019-05-18T12:19:34.818Z,19.00
2019-05-18T12:20:34.788Z,18.20
2019-05-18T12:21:34.772Z,18.70
2019-05-18T12:22:34.759Z,18.80
2019-05-18T12:23:34.744Z,18.90
2019-05-18T12:24:34.766Z,19.00
2019-05-18T12:25:34.777Z,18.70
2019-05-18T12:26:34.718Z,18.90
2019-05-18T12:27:34.707Z,20.10
2019-05-18T12:28:34.695Z,19.60
2019-05-18T12:29:34.706Z,19.70
2019-05-18T12:30:34.702Z,19.10
2019-05-18T12:31:34.666Z,20.30
2019-05-18T12:32:34.657Z,19.70
2019-05-18T12:33:34.679Z,19.50
2019-05-18T12:34:34.633Z,19.70
2019-05-18T12:35:34.625Z,19.20
2019-05-18T12:36:34.643Z,19.40
2019-05-18T12:37:34.604Z,19.20
2019-05-18T12:38:34.605Z,19.30
2019-05-18T12:39:34.588Z,18.90
2019-05-18T12:40:34.589Z,19.00
2019-05-18T12:41:34.570Z,19.30
2019-05-18T12:42:34.582Z,19.20
2019-05-18T12:43:34.554Z,19.50
2019-05-18T12:44:34.547Z,18.80
2019-05-18T12:45:34.533Z,19.30
2019-05-18T12:46:34.519Z,18.90
2019-05-18T12:47:34.503Z,19.70
2019-05-18T12:48:34.537Z,18.80
2019-05-18T12:49:34.501Z,18.90
2019-05-18T12:50:34.473Z,19.90
2019-05-18T12:51:34.456Z,21.90
2019-05-18T12:52:34.452Z,37.10